createdAt,value
2017-07-18T00:00:15.011Z,1023.52
2017-07-18T00:01:16.842Z,1023.52
2017-07-18T00:02:18.668Z,1023.47
2017-07-18T00:03:20.538Z,1023.48
2017-07-18T00:04:22.409Z,1023.44
2017-07-18T00:05:24.300Z,1023.47
2017-07-18T00:06:38.442Z,1023.47
2017-07-18T00:07:40.311Z,1023.47
2017-07-18T00:08:42.174Z,1023.46
2017-07-18T00:09:44.042Z,1023.50
2017-07-18T00:10:45.852Z,1023.49
2017-07-18T00:11:47.653Z,1023.48
2017-07-18T00:12:49.524Z,1023.48
2017-07-18T00:13:51.394Z,1023.45
2017-07-18T00:14:53.267Z,1023.44
2017-07-18T00:16:07.434Z,1023.47
2017-07-18T00:17:09.324Z,1023.46
2017-07-18T00:18:11.197Z,1023.46
2017-07-18T00:19:13.084Z,1023.45
2017-07-18T00:20:14.899Z,1023.46
2017-07-18T00:21:16.724Z,1023.47
2017-07-18T00:22:18.613Z,1023.46
2017-07-18T00:23:20.479Z,1023.50
2017-07-18T00:24:22.354Z,1023.51
2017-07-18T00:25:36.501Z,1023.48
2017-07-18T00:26:38.393Z,1023.49
2017-07-18T00:27:40.265Z,1023.48
2017-07-18T00:28:42.158Z,1023.49
2017-07-18T00:29:43.985Z,1023.49
2017-07-18T00:30:45.791Z,1023.47
2017-07-18T00:31:47.660Z,1023.48
2017-07-18T00:32:49.549Z,1023.48
2017-07-18T00:33:51.423Z,1023.45
2017-07-18T00:35:05.585Z,1023.43
2017-07-18T00:36:07.460Z,1023.47
2017-07-18T00:37:09.326Z,1023.45
2017-07-18T00:38:11.190Z,1023.45
2017-07-18T00:39:12.994Z,1023.45
2017-07-18T00:40:14.831Z,1023.41
2017-07-18T00:41:16.718Z,1023.41
2017-07-18T00:42:18.607Z,1023.37
2017-07-18T00:43:20.473Z,1023.39
2017-07-18T00:44:34.617Z,1023.34
2017-07-18T00:45:36.511Z,1023.36
2017-07-18T00:46:38.407Z,1023.36
2017-07-18T00:47:40.296Z,1023.31
2017-07-18T00:48:42.102Z,1023.30
2017-07-18T00:49:43.905Z,1023.34
2017-07-18T00:50:45.776Z,1023.32
2017-07-18T00:51:47.665Z,1023.34
2017-07-18T00:52:49.537Z,1023.30
2017-07-18T00:54:03.677Z,1023.26
2017-07-18T00:55:05.548Z,1023.29
2017-07-18T00:56:07.443Z,1023.30
2017-07-18T00:57:09.333Z,1023.29
2017-07-18T00:58:11.165Z,1023.27
2017-07-18T00:59:12.989Z,1023.29
2017-07-18T01:00:14.876Z,1023.30
2017-07-18T01:01:16.723Z,1023.27
2017-07-18T01:02:18.596Z,1023.31
2017-07-18T01:03:32.761Z,1023.32
2017-07-18T01:04:34.658Z,1023.28
2017-07-18T01:05:36.555Z,1023.30
2017-07-18T01:06:38.424Z,1023.29
2017-07-18T01:07:40.247Z,1023.27
2017-07-18T01:08:42.058Z,1023.26
2017-07-18T01:09:43.950Z,1023.29
2017-07-18T01:10:45.824Z,1023.21
2017-07-18T01:11:47.695Z,1023.22
2017-07-18T01:13:01.818Z,1023.22
2017-07-18T01:14:03.631Z,1023.23
2017-07-18T01:15:05.522Z,1023.19
2017-07-18T01:16:07.398Z,1023.21
2017-07-18T01:17:09.295Z,1023.20
2017-07-18T01:18:11.125Z,1023.19
2017-07-18T01:19:12.952Z,1023.21
2017-07-18T01:20:14.822Z,1023.19
2017-07-18T01:21:16.692Z,1023.20
2017-07-18T01:22:30.909Z,1023.16
2017-07-18T01:23:32.777Z,1023.20
2017-07-18T01:24:34.645Z,1023.20
2017-07-18T01:25:36.513Z,1023.20
2017-07-18T01:26:38.345Z,1023.21
2017-07-18T01:27:40.146Z,1023.20
2017-07-18T01:28:42.029Z,1023.20
2017-07-18T01:29:43.922Z,1023.20
2017-07-18T01:30:45.799Z,1023.18
2017-07-18T01:31:59.946Z,1023.17
2017-07-18T01:33:01.817Z,1023.15
2017-07-18T01:34:03.689Z,1023.19
2017-07-18T01:35:05.563Z,1023.20
2017-07-18T01:36:07.390Z,1023.19
2017-07-18T01:37:09.200Z,1023.19
2017-07-18T01:38:11.102Z,1023.21
2017-07-18T01:39:12.966Z,1023.18
2017-07-18T01:40:14.837Z,1023.17
2017-07-18T01:41:28.983Z,1023.18
2017-07-18T01:42:30.879Z,1023.19
2017-07-18T01:43:32.772Z,1023.17
2017-07-18T01:44:34.669Z,1023.18
2017-07-18T01:45:36.496Z,1023.17
2017-07-18T01:46:38.303Z,1023.19
2017-07-18T01:47:40.172Z,1023.20
2017-07-18T01:48:42.048Z,1023.22
2017-07-18T01:49:43.942Z,1023.22
2017-07-18T01:50:58.089Z,1023.20
2017-07-18T01:51:59.983Z,1023.18
2017-07-18T01:53:01.857Z,1023.22
2017-07-18T01:54:03.742Z,1023.19
2017-07-18T01:55:05.525Z,1023.13
2017-07-18T01:56:07.338Z,1023.13
2017-07-18T01:57:09.233Z,1023.11
2017-07-18T01:58:11.126Z,1023.10
2017-07-18T01:59:13.006Z,1023.07
2017-07-18T02:00:27.143Z,1023.08
2017-07-18T02:01:29.018Z,1023.05
2017-07-18T02:02:30.886Z,1023.07
2017-07-18T02:03:32.754Z,1023.05
2017-07-18T02:04:34.559Z,1023.07
2017-07-18T02:05:36.367Z,1023.08
2017-07-18T02:06:38.255Z,1023.06
2017-07-18T02:07:40.130Z,1023.07
2017-07-18T02:08:42.026Z,1023.10
2017-07-18T02:09:56.166Z,1023.11
2017-07-18T02:10:58.040Z,1023.10
2017-07-18T02:11:59.909Z,1023.08
2017-07-18T02:13:01.778Z,1023.06
2017-07-18T02:14:03.588Z,1023.03
2017-07-18T02:15:05.395Z,1023.05
2017-07-18T02:16:07.290Z,1023.03
2017-07-18T02:17:09.159Z,1023.02
2017-07-18T02:18:11.053Z,1023.02
2017-07-18T02:19:25.196Z,1023.02
2017-07-18T02:20:27.067Z,1023.02
2017-07-18T02:21:28.947Z,1023.01
2017-07-18T02:22:30.828Z,1023.03
2017-07-18T02:23:32.636Z,1023.03
2017-07-18T02:24:34.444Z,1023.03
2017-07-18T02:25:36.344Z,1023.07
2017-07-18T02:26:38.234Z,1023.04
2017-07-18T02:27:40.108Z,1023.03
2017-07-18T02:28:54.251Z,1023.07
2017-07-18T02:29:56.125Z,1023.05
2017-07-18T02:30:57.990Z,1023.08
2017-07-18T02:31:59.861Z,1023.08
2017-07-18T02:33:01.671Z,1023.08
2017-07-18T02:34:03.510Z,1023.08
2017-07-18T02:35:05.387Z,1023.06
2017-07-18T02:36:07.285Z,1023.11
2017-07-18T02:37:09.156Z,1023.11
2017-07-18T02:38:23.327Z,1023.08
2017-07-18T02:39:25.224Z,1023.13
2017-07-18T02:40:27.120Z,1023.11
2017-07-18T02:41:28.990Z,1023.09
2017-07-18T02:42:30.831Z,1023.09
2017-07-18T02:43:32.626Z,1023.10
2017-07-18T02:44:34.506Z,1023.09
2017-07-18T02:45:36.402Z,1023.06
2017-07-18T02:46:38.272Z,1023.07
2017-07-18T02:47:52.415Z,1023.04
2017-07-18T02:48:54.293Z,1023.05
2017-07-18T02:49:56.186Z,1023.02
2017-07-18T02:50:58.057Z,1023.01
2017-07-18T02:51:59.864Z,1023.03
2017-07-18T02:53:01.672Z,1023.06
2017-07-18T02:54:03.566Z,1023.03
2017-07-18T02:55:05.439Z,1023.08
2017-07-18T02:56:07.346Z,1023.03
2017-07-18T02:57:21.545Z,1023.03
2017-07-18T02:58:23.426Z,1023.04
2017-07-18T02:59:25.292Z,1023.07
2017-07-18T03:00:27.190Z,1023.08
2017-07-18T03:01:29.020Z,1023.07
2017-07-18T03:02:30.834Z,1023.07
2017-07-18T03:03:32.728Z,1023.04
2017-07-18T03:04:34.607Z,1023.08
2017-07-18T03:05:36.479Z,1023.06
2017-07-18T03:06:50.632Z,1023.08
2017-07-18T03:07:52.532Z,1023.10
2017-07-18T03:08:54.436Z,1023.13
2017-07-18T03:09:56.307Z,1023.11
2017-07-18T03:10:58.143Z,1023.11
2017-07-18T03:11:59.951Z,1023.17
2017-07-18T03:13:01.826Z,1023.11
2017-07-18T03:14:03.699Z,1023.18
2017-07-18T03:15:05.597Z,1023.15
2017-07-18T03:16:19.746Z,1023.14
2017-07-18T03:17:21.648Z,1023.17
2017-07-18T03:18:23.546Z,1023.19
2017-07-18T03:19:25.441Z,1023.21
2017-07-18T03:20:27.273Z,1023.21
2017-07-18T03:21:29.087Z,1023.23
2017-07-18T03:22:30.991Z,1023.27
2017-07-18T03:23:32.881Z,1023.27
2017-07-18T03:24:34.757Z,1023.28
2017-07-18T03:25:48.927Z,1023.26
2017-07-18T03:26:50.799Z,1023.27
2017-07-18T03:27:52.692Z,1023.24
2017-07-18T03:28:54.570Z,1023.27
2017-07-18T03:29:56.404Z,1023.27
2017-07-18T03:30:58.217Z,1023.27
2017-07-18T03:32:00.108Z,1023.28
2017-07-18T03:33:01.985Z,1023.25
2017-07-18T03:34:03.883Z,1023.27
2017-07-18T03:35:18.029Z,1023.28
2017-07-18T03:36:19.907Z,1023.32
2017-07-18T03:37:21.804Z,1023.31
2017-07-18T03:38:23.675Z,1023.37
2017-07-18T03:39:25.493Z,1023.33
2017-07-18T03:40:27.328Z,1023.35
2017-07-18T03:41:29.194Z,1023.36
2017-07-18T03:42:31.073Z,1023.38
2017-07-18T03:43:32.944Z,1023.36
2017-07-18T03:44:47.100Z,1023.36
2017-07-18T03:45:48.996Z,1023.44
2017-07-18T03:46:50.898Z,1023.40
2017-07-18T03:47:52.769Z,1023.40
2017-07-18T03:48:54.579Z,1023.37
2017-07-18T03:49:56.394Z,1023.40
2017-07-18T03:50:58.295Z,1023.41
2017-07-18T03:52:00.192Z,1023.41
2017-07-18T03:53:02.090Z,1023.41
2017-07-18T03:54:16.238Z,1023.37
2017-07-18T03:55:18.135Z,1023.43
2017-07-18T03:56:20.012Z,1023.38
2017-07-18T03:57:21.880Z,1023.42
2017-07-18T03:58:23.698Z,1023.41
2017-07-18T03:59:25.532Z,1023.43
2017-07-18T04:00:27.437Z,1023.43
2017-07-18T04:01:29.327Z,1023.40
2017-07-18T04:02:31.211Z,1023.39
2017-07-18T04:03:45.381Z,1023.41
2017-07-18T04:04:47.254Z,1023.39
2017-07-18T04:05:49.127Z,1023.39
2017-07-18T04:06:51.004Z,1023.39
2017-07-18T04:07:52.845Z,1023.40
2017-07-18T04:08:54.680Z,1023.40
2017-07-18T04:09:56.580Z,1023.39
2017-07-18T04:10:58.453Z,1023.45
2017-07-18T04:12:00.324Z,1023.45
2017-07-18T04:13:14.518Z,1023.45
2017-07-18T04:14:16.394Z,1023.43
2017-07-18T04:15:18.268Z,1023.44
2017-07-18T04:16:20.144Z,1023.44
2017-07-18T04:17:21.981Z,1023.44
2017-07-18T04:18:23.799Z,1023.45
2017-07-18T04:19:25.666Z,1023.43
2017-07-18T04:20:27.549Z,1023.48
2017-07-18T04:21:29.443Z,1023.47
2017-07-18T04:22:43.601Z,1023.44
2017-07-18T04:23:45.466Z,1023.50
2017-07-18T04:24:47.351Z,1023.48
2017-07-18T04:25:49.212Z,1023.51
2017-07-18T04:26:51.032Z,1023.47
2017-07-18T04:27:52.868Z,1023.45
2017-07-18T04:28:54.775Z,1023.45
2017-07-18T04:29:56.642Z,1023.43
2017-07-18T04:30:58.539Z,1023.48
2017-07-18T04:32:12.692Z,1023.48
2017-07-18T04:33:14.594Z,1023.48
2017-07-18T04:34:16.473Z,1023.49
2017-07-18T04:35:18.370Z,1023.50
2017-07-18T04:36:20.205Z,1023.54
2017-07-18T04:37:22.017Z,1023.49
2017-07-18T04:38:23.894Z,1023.51
2017-07-18T04:39:25.764Z,1023.48
2017-07-18T04:40:27.638Z,1023.49
2017-07-18T04:41:41.791Z,1023.46
2017-07-18T04:42:43.693Z,1023.48
2017-07-18T04:43:45.594Z,1023.47
2017-07-18T04:44:47.487Z,1023.48
2017-07-18T04:45:49.305Z,1023.50
2017-07-18T04:46:51.112Z,1023.50
2017-07-18T04:47:52.991Z,1023.48
2017-07-18T04:48:54.890Z,1023.51
2017-07-18T04:49:56.771Z,1023.50
2017-07-18T04:51:10.941Z,1023.49
2017-07-18T04:52:12.817Z,1023.52
2017-07-18T04:53:14.721Z,1023.51
2017-07-18T04:54:16.617Z,1023.52
2017-07-18T04:55:18.438Z,1023.60
2017-07-18T04:56:20.271Z,1023.59
2017-07-18T04:57:22.146Z,1023.58
2017-07-18T04:58:24.043Z,1023.59
2017-07-18T04:59:25.918Z,1023.58
2017-07-18T05:00:40.076Z,1023.55
2017-07-18T05:01:41.948Z,1023.57
2017-07-18T05:02:43.830Z,1023.58
2017-07-18T05:03:45.703Z,1023.60
2017-07-18T05:04:47.521Z,1023.61
2017-07-18T05:05:49.355Z,1023.59
2017-07-18T05:06:51.233Z,1023.60
2017-07-18T05:07:53.133Z,1023.62
2017-07-18T05:08:55.010Z,1023.61
2017-07-18T05:10:09.180Z,1023.60
2017-07-18T05:11:11.060Z,1023.60
2017-07-18T05:12:12.964Z,1023.59
2017-07-18T05:13:14.860Z,1023.60
2017-07-18T05:14:16.674Z,1023.60
2017-07-18T05:15:18.484Z,1023.62
2017-07-18T05:16:20.366Z,1023.62
2017-07-18T05:17:22.266Z,1023.68
2017-07-18T05:18:24.148Z,1023.66
2017-07-18T05:19:38.299Z,1023.67
2017-07-18T05:20:40.196Z,1023.64
2017-07-18T05:21:42.076Z,1023.65
2017-07-18T05:22:43.951Z,1023.60
2017-07-18T05:23:45.767Z,1023.63
2017-07-18T05:24:47.578Z,1023.60
2017-07-18T05:25:49.459Z,1023.63
2017-07-18T05:26:51.359Z,1023.66
2017-07-18T05:27:53.256Z,1023.68
2017-07-18T05:29:07.414Z,1023.65
2017-07-18T05:30:09.312Z,1023.66
2017-07-18T05:31:11.195Z,1023.64
2017-07-18T05:32:13.098Z,1023.61
2017-07-18T05:33:14.937Z,1023.63
2017-07-18T05:34:16.773Z,1023.67
2017-07-18T05:35:18.650Z,1023.66
2017-07-18T05:36:20.524Z,1023.64
2017-07-18T05:37:22.405Z,1023.62
2017-07-18T05:38:36.587Z,1023.65
2017-07-18T05:39:38.501Z,1023.66
2017-07-18T05:40:40.402Z,1023.67
2017-07-18T05:41:42.277Z,1023.64
2017-07-18T05:42:44.120Z,1023.64
2017-07-18T05:43:45.956Z,1023.65
2017-07-18T05:44:47.861Z,1023.66
2017-07-18T05:45:49.761Z,1023.66
2017-07-18T05:46:51.635Z,1023.68
2017-07-18T05:48:05.789Z,1023.65
2017-07-18T05:49:07.695Z,1023.66
2017-07-18T05:50:09.597Z,1023.63
2017-07-18T05:51:11.477Z,1023.63
2017-07-18T05:52:13.320Z,1023.65
2017-07-18T05:53:15.152Z,1023.67
2017-07-18T05:54:17.051Z,1023.70
2017-07-18T05:55:18.932Z,1023.71
2017-07-18T05:56:20.833Z,1023.72
2017-07-18T05:57:34.991Z,1023.72
2017-07-18T05:58:36.888Z,1023.75
2017-07-18T05:59:38.764Z,1023.76
2017-07-18T06:00:40.642Z,1023.73
2017-07-18T06:01:42.461Z,1023.70
2017-07-18T06:02:44.267Z,1023.72
2017-07-18T06:03:46.145Z,1023.76
2017-07-18T06:04:48.024Z,1023.75
2017-07-18T06:05:49.901Z,1023.77
2017-07-18T06:07:04.062Z,1023.82
2017-07-18T06:08:05.936Z,1023.80
2017-07-18T06:09:07.804Z,1023.81
2017-07-18T06:10:09.683Z,1023.83
2017-07-18T06:11:11.521Z,1023.83
2017-07-18T06:12:13.336Z,1023.84
2017-07-18T06:13:15.216Z,1023.84
2017-07-18T06:14:17.111Z,1023.83
2017-07-18T06:15:18.996Z,1023.82
2017-07-18T06:16:33.170Z,1023.82
2017-07-18T06:17:35.045Z,1023.87
2017-07-18T06:18:36.924Z,1023.85
2017-07-18T06:19:38.818Z,1023.84
2017-07-18T06:20:40.644Z,1023.85
2017-07-18T06:21:42.459Z,1023.84
2017-07-18T06:22:44.327Z,1023.87
2017-07-18T06:23:46.203Z,1023.89
2017-07-18T06:24:48.109Z,1023.84
2017-07-18T06:26:02.287Z,1023.88
2017-07-18T06:27:04.168Z,1023.90
2017-07-18T06:28:06.045Z,1023.94
2017-07-18T06:29:07.923Z,1023.97
2017-07-18T06:30:09.738Z,1023.95
2017-07-18T06:31:11.560Z,1023.97
2017-07-18T06:32:13.450Z,1023.97
2017-07-18T06:33:15.332Z,1023.98
2017-07-18T06:34:17.234Z,1023.92
2017-07-18T06:35:31.384Z,1024.01
2017-07-18T06:36:33.267Z,1023.97
2017-07-18T06:37:35.143Z,1024.02
2017-07-18T06:38:37.042Z,1023.99
2017-07-18T06:39:38.860Z,1024.07
2017-07-18T06:40:40.671Z,1024.00
2017-07-18T06:41:42.557Z,1024.00
2017-07-18T06:42:44.467Z,1024.02
2017-07-18T06:43:46.337Z,1023.99
2017-07-18T06:45:00.512Z,1024.01
2017-07-18T06:46:02.389Z,1023.98
2017-07-18T06:47:04.270Z,1024.02
2017-07-18T06:48:06.177Z,1024.03
2017-07-18T06:49:07.973Z,1024.06
2017-07-18T06:50:09.793Z,1024.07
2017-07-18T06:51:11.679Z,1024.05
2017-07-18T06:52:13.562Z,1024.00
2017-07-18T06:53:15.464Z,1023.99
2017-07-18T06:54:29.644Z,1024.02
2017-07-18T06:55:31.538Z,1024.04
2017-07-18T06:56:33.423Z,1024.05
2017-07-18T06:57:35.299Z,1024.03
2017-07-18T06:58:37.141Z,1024.05
2017-07-18T06:59:38.954Z,1024.07
2017-07-18T07:00:40.856Z,1024.07
2017-07-18T07:01:42.744Z,1024.08
2017-07-18T07:02:44.624Z,1024.04
2017-07-18T07:03:58.797Z,1024.05
2017-07-18T07:05:00.680Z,1024.06
2017-07-18T07:06:02.584Z,1024.06
2017-07-18T07:07:04.481Z,1024.12
2017-07-18T07:08:06.301Z,1024.12
2017-07-18T07:09:08.114Z,1024.08
2017-07-18T07:10:10.000Z,1024.12
2017-07-18T07:11:11.905Z,1024.09
2017-07-18T07:12:13.779Z,1024.04
2017-07-18T07:13:27.938Z,1024.03
2017-07-18T07:14:29.816Z,1023.97
2017-07-18T07:15:31.696Z,1023.95
2017-07-18T07:16:33.601Z,1023.89
2017-07-18T07:17:35.415Z,1023.85
2017-07-18T07:18:37.232Z,1023.86
2017-07-18T07:19:39.112Z,1023.75
2017-07-18T07:20:41.022Z,1023.77
2017-07-18T07:21:42.920Z,1023.74
2017-07-18T07:22:57.096Z,1023.72
2017-07-18T07:23:59.000Z,1023.73
2017-07-18T07:25:00.912Z,1023.74
2017-07-18T07:26:02.779Z,1023.75
2017-07-18T07:27:04.605Z,1023.76
2017-07-18T07:28:06.415Z,1023.78
2017-07-18T07:29:08.313Z,1023.80
2017-07-18T07:30:10.197Z,1023.77
2017-07-18T07:31:12.090Z,1023.78
2017-07-18T07:32:26.245Z,1023.83
2017-07-18T07:33:28.118Z,1023.83
2017-07-18T07:34:30.007Z,1023.81
2017-07-18T07:35:31.902Z,1023.79
2017-07-18T07:36:33.721Z,1023.81
2017-07-18T07:37:35.533Z,1023.75
2017-07-18T07:38:37.435Z,1023.77
2017-07-18T07:39:39.315Z,1023.77
2017-07-18T07:40:41.217Z,1023.74
2017-07-18T07:41:55.417Z,1023.73
2017-07-18T07:42:57.294Z,1023.72
2017-07-18T07:43:59.169Z,1023.73
2017-07-18T07:45:01.070Z,1023.73
2017-07-18T07:46:02.911Z,1023.78
2017-07-18T07:47:04.720Z,1023.75
2017-07-18T07:48:06.604Z,1023.79
2017-07-18T07:49:08.482Z,1023.79
2017-07-18T07:50:10.360Z,1023.79
2017-07-18T07:51:24.532Z,1023.81
2017-07-18T07:52:26.411Z,1023.81
2017-07-18T07:53:28.310Z,1023.85
2017-07-18T07:54:30.179Z,1023.86
2017-07-18T07:55:31.998Z,1023.88
2017-07-18T07:56:33.839Z,1023.96
2017-07-18T07:57:35.738Z,1023.95
2017-07-18T07:58:37.638Z,1023.98
2017-07-18T07:59:39.544Z,1024.00
2017-07-18T08:00:53.722Z,1024.03
2017-07-18T08:01:55.619Z,1024.07
2017-07-18T08:02:57.494Z,1024.09
2017-07-18T08:03:59.368Z,1024.14
2017-07-18T08:05:01.182Z,1024.14
2017-07-18T08:06:03.001Z,1024.21
2017-07-18T08:07:04.900Z,1024.26
2017-07-18T08:08:06.804Z,1024.32
2017-07-18T08:09:08.701Z,1024.30
2017-07-18T08:10:22.855Z,1024.31
2017-07-18T08:11:24.755Z,1024.32
2017-07-18T08:12:26.628Z,1024.37
2017-07-18T08:13:28.506Z,1024.40
2017-07-18T08:14:30.345Z,1024.47
2017-07-18T08:15:32.158Z,1024.47
2017-07-18T08:16:33.983Z,1024.48
2017-07-18T08:17:35.822Z,1024.50
2017-07-18T08:18:37.635Z,1024.51
2017-07-18T08:19:51.784Z,1024.51
2017-07-18T08:20:53.666Z,1024.50
2017-07-18T08:21:55.545Z,1024.50
2017-07-18T08:22:57.442Z,1024.49
2017-07-18T08:23:59.261Z,1024.48
2017-07-18T08:25:01.097Z,1024.45
2017-07-18T08:26:02.974Z,1024.46
2017-07-18T08:27:04.858Z,1024.48
2017-07-18T08:28:06.739Z,1024.46
2017-07-18T08:29:20.919Z,1024.49
2017-07-18T08:30:22.792Z,1024.46
2017-07-18T08:31:24.666Z,1024.47
2017-07-18T08:32:26.543Z,1024.44
2017-07-18T08:33:28.363Z,1024.47
2017-07-18T08:34:30.181Z,1024.44
2017-07-18T08:35:32.059Z,1024.45
2017-07-18T08:36:33.936Z,1024.44
2017-07-18T08:37:35.820Z,1024.45
2017-07-18T08:38:50.002Z,1024.43
2017-07-18T08:39:51.913Z,1024.38
2017-07-18T08:40:53.813Z,1024.35
2017-07-18T08:41:55.689Z,1024.32
2017-07-18T08:42:57.509Z,1024.28
2017-07-18T08:43:59.328Z,1024.21
2017-07-18T08:45:01.239Z,1024.13
2017-07-18T08:46:03.107Z,1024.06
2017-07-18T08:47:04.985Z,1023.94
2017-07-18T08:48:19.168Z,1023.91
2017-07-18T08:49:21.038Z,1023.86
2017-07-18T08:50:22.920Z,1023.82
2017-07-18T08:51:24.792Z,1023.75
2017-07-18T08:52:26.610Z,1023.72
2017-07-18T08:53:28.428Z,1023.72
2017-07-18T08:54:30.331Z,1023.67
2017-07-18T08:55:32.234Z,1023.69
2017-07-18T08:56:34.135Z,1023.69
2017-07-18T08:57:48.310Z,1023.64
2017-07-18T08:58:50.191Z,1023.65
2017-07-18T08:59:52.096Z,1023.61
2017-07-18T09:00:53.996Z,1023.62
2017-07-18T09:01:55.815Z,1023.59
2017-07-18T09:02:57.651Z,1023.60
2017-07-18T09:03:59.533Z,1023.60
2017-07-18T09:05:01.433Z,1023.57
2017-07-18T09:06:03.315Z,1023.61
2017-07-18T09:07:17.491Z,1023.60
2017-07-18T09:08:19.372Z,1023.57
2017-07-18T09:09:21.274Z,1023.59
2017-07-18T09:10:23.170Z,1023.54
2017-07-18T09:11:25.013Z,1023.54
2017-07-18T09:12:26.852Z,1023.56
2017-07-18T09:13:28.728Z,1023.55
2017-07-18T09:14:30.629Z,1023.51
2017-07-18T09:15:32.543Z,1023.53
2017-07-18T09:16:46.674Z,1023.55
2017-07-18T09:17:48.550Z,1023.55
2017-07-18T09:18:50.423Z,1023.56
2017-07-18T09:19:52.299Z,1023.55
2017-07-18T09:20:54.120Z,1023.53
2017-07-18T09:21:55.954Z,1023.54
2017-07-18T09:22:57.832Z,1023.53
2017-07-18T09:23:59.710Z,1023.53
2017-07-18T09:25:01.582Z,1023.52
2017-07-18T09:26:15.738Z,1023.55
2017-07-18T09:27:17.614Z,1023.59
2017-07-18T09:28:19.486Z,1023.57
2017-07-18T09:29:21.387Z,1023.54
2017-07-18T09:30:23.222Z,1023.55
2017-07-18T09:31:25.037Z,1023.53
2017-07-18T09:32:26.936Z,1023.49
2017-07-18T09:33:28.817Z,1023.52
2017-07-18T09:34:30.721Z,1023.50
2017-07-18T09:35:44.872Z,1023.45
2017-07-18T09:36:46.773Z,1023.45
2017-07-18T09:37:48.668Z,1023.42
2017-07-18T09:38:50.548Z,1023.37
2017-07-18T09:39:52.385Z,1023.41
2017-07-18T09:40:54.203Z,1023.45
2017-07-18T09:41:56.104Z,1023.42
2017-07-18T09:42:58.004Z,1023.41
2017-07-18T09:43:59.874Z,1023.47
2017-07-18T09:45:14.027Z,1023.43
2017-07-18T09:46:15.906Z,1023.48
2017-07-18T09:47:17.807Z,1023.49
2017-07-18T09:48:19.698Z,1023.51
2017-07-18T09:49:21.519Z,1023.51
2017-07-18T09:50:23.334Z,1023.46
2017-07-18T09:51:25.236Z,1023.46
2017-07-18T09:52:27.139Z,1023.54
2017-07-18T09:53:29.036Z,1023.49
2017-07-18T09:54:43.190Z,1023.51
2017-07-18T09:55:45.062Z,1023.50
2017-07-18T09:56:46.938Z,1023.52
2017-07-18T09:57:48.821Z,1023.54
2017-07-18T09:58:50.655Z,1023.55
2017-07-18T09:59:52.469Z,1023.54
2017-07-18T10:00:54.344Z,1023.52
2017-07-18T10:01:56.220Z,1023.56
2017-07-18T10:02:58.099Z,1023.51
2017-07-18T10:04:12.273Z,1023.53
2017-07-18T10:05:14.146Z,1023.49
2017-07-18T10:06:16.025Z,1023.51
2017-07-18T10:07:17.927Z,1023.46
2017-07-18T10:08:19.762Z,1023.47
2017-07-18T10:09:21.581Z,1023.46
2017-07-18T10:10:23.480Z,1023.43
2017-07-18T10:11:25.374Z,1023.40
2017-07-18T10:12:27.255Z,1023.41
2017-07-18T10:13:41.410Z,1023.42
2017-07-18T10:14:43.312Z,1023.43
2017-07-18T10:15:45.209Z,1023.43
2017-07-18T10:16:47.086Z,1023.43
2017-07-18T10:17:48.925Z,1023.42
2017-07-18T10:18:50.738Z,1023.45
2017-07-18T10:19:52.636Z,1023.42
2017-07-18T10:20:54.489Z,1023.39
2017-07-18T10:21:56.361Z,1023.42
2017-07-18T10:23:10.526Z,1023.37
2017-07-18T10:24:12.391Z,1023.42
2017-07-18T10:25:14.266Z,1023.40
2017-07-18T10:26:16.173Z,1023.37
2017-07-18T10:27:17.983Z,1023.38
2017-07-18T10:28:19.820Z,1023.32
2017-07-18T10:29:21.726Z,1023.40
2017-07-18T10:30:23.598Z,1023.39
2017-07-18T10:31:25.491Z,1023.40
2017-07-18T10:32:39.646Z,1023.35
2017-07-18T10:33:41.523Z,1023.40
2017-07-18T10:34:43.434Z,1023.35
2017-07-18T10:35:45.311Z,1023.36
2017-07-18T10:36:47.147Z,1023.34
2017-07-18T10:37:48.961Z,1023.33
2017-07-18T10:38:50.840Z,1023.33
2017-07-18T10:39:52.740Z,1023.35
2017-07-18T10:40:54.642Z,1023.30
2017-07-18T10:42:08.818Z,1023.28
2017-07-18T10:43:10.698Z,1023.26
2017-07-18T10:44:12.598Z,1023.25
2017-07-18T10:45:14.495Z,1023.27
2017-07-18T10:46:16.335Z,1023.26
2017-07-18T10:47:18.151Z,1023.28
2017-07-18T10:48:20.047Z,1023.22
2017-07-18T10:49:21.928Z,1023.23
2017-07-18T10:50:23.827Z,1023.24
2017-07-18T10:51:37.979Z,1023.20
2017-07-18T10:52:39.855Z,1023.17
2017-07-18T10:53:41.758Z,1023.23
2017-07-18T10:54:43.649Z,1023.20
2017-07-18T10:55:45.471Z,1023.20
2017-07-18T10:56:47.308Z,1023.20
2017-07-18T10:57:49.182Z,1023.15
2017-07-18T10:58:51.063Z,1023.15
2017-07-18T10:59:52.967Z,1023.16
2017-07-18T11:01:07.144Z,1023.14
2017-07-18T11:02:09.041Z,1023.15
2017-07-18T11:03:10.918Z,1023.16
2017-07-18T11:04:12.793Z,1023.18
2017-07-18T11:05:14.616Z,1023.16
2017-07-18T11:06:16.448Z,1023.20
2017-07-18T11:07:18.329Z,1023.17
2017-07-18T11:08:20.222Z,1023.19
2017-07-18T11:09:22.098Z,1023.16
2017-07-18T11:10:36.254Z,1023.22
2017-07-18T11:11:38.157Z,1023.32
2017-07-18T11:12:40.039Z,1023.36
2017-07-18T11:13:41.937Z,1023.39
2017-07-18T11:14:43.778Z,1023.41
2017-07-18T11:15:45.589Z,1023.44
2017-07-18T11:16:47.465Z,1023.47
2017-07-18T11:17:49.344Z,1023.50
2017-07-18T11:18:51.248Z,1023.45
2017-07-18T11:20:05.422Z,1023.40
2017-07-18T11:21:07.298Z,1023.41
2017-07-18T11:22:09.173Z,1023.40
2017-07-18T11:23:11.056Z,1023.41
2017-07-18T11:24:12.890Z,1023.37
2017-07-18T11:25:14.708Z,1023.35
2017-07-18T11:26:16.591Z,1023.35
2017-07-18T11:27:18.467Z,1023.35
2017-07-18T11:28:20.341Z,1023.29
2017-07-18T11:29:34.500Z,1023.29
2017-07-18T11:30:36.400Z,1023.31
2017-07-18T11:31:38.281Z,1023.33
2017-07-18T11:32:40.182Z,1023.34
2017-07-18T11:33:42.023Z,1023.36
2017-07-18T11:34:43.837Z,1023.30
2017-07-18T11:35:45.718Z,1023.34
2017-07-18T11:36:47.592Z,1023.29
2017-07-18T11:37:49.474Z,1023.33
2017-07-18T11:39:03.651Z,1023.34
2017-07-18T11:40:05.525Z,1023.34
2017-07-18T11:41:07.400Z,1023.36
2017-07-18T11:42:09.283Z,1023.39
2017-07-18T11:43:11.127Z,1023.38
2017-07-18T11:44:12.964Z,1023.35
2017-07-18T11:45:14.842Z,1023.29
2017-07-18T11:46:16.748Z,1023.32
2017-07-18T11:47:18.646Z,1023.35
2017-07-18T11:48:32.806Z,1023.35
2017-07-18T11:49:34.681Z,1023.33
2017-07-18T11:50:36.562Z,1023.24
2017-07-18T11:51:38.462Z,1023.20
2017-07-18T11:52:40.278Z,1023.17
2017-07-18T11:53:42.098Z,1023.14
2017-07-18T11:54:43.971Z,1023.05
2017-07-18T11:55:45.851Z,1023.04
2017-07-18T11:56:47.728Z,1022.96
2017-07-18T11:58:01.890Z,1022.94
2017-07-18T11:59:03.794Z,1022.90
2017-07-18T12:00:05.694Z,1022.83
2017-07-18T12:01:07.572Z,1022.84
2017-07-18T12:02:09.389Z,1022.85
2017-07-18T12:03:11.212Z,1022.82
2017-07-18T12:04:13.087Z,1022.81
2017-07-18T12:05:14.986Z,1022.76
2017-07-18T12:06:16.864Z,1022.80
2017-07-18T12:07:31.019Z,1022.80
2017-07-18T12:08:32.903Z,1022.81
2017-07-18T12:09:34.804Z,1022.78
2017-07-18T12:10:36.679Z,1022.74
2017-07-18T12:11:38.524Z,1022.77
2017-07-18T12:12:40.360Z,1022.70
2017-07-18T12:13:42.239Z,1022.72
2017-07-18T12:14:44.114Z,1022.68
2017-07-18T12:15:45.989Z,1022.69
2017-07-18T12:17:00.149Z,1022.69
2017-07-18T12:18:02.054Z,1022.70
2017-07-18T12:19:03.956Z,1022.72
2017-07-18T12:20:05.829Z,1022.72
2017-07-18T12:21:07.650Z,1022.71
2017-07-18T12:22:09.487Z,1022.72
2017-07-18T12:23:11.372Z,1022.70
2017-07-18T12:24:13.279Z,1022.71
2017-07-18T12:25:15.158Z,1022.74
2017-07-18T12:26:29.335Z,1022.77
2017-07-18T12:27:31.235Z,1022.79
2017-07-18T12:28:33.117Z,1022.80
2017-07-18T12:29:34.992Z,1022.83
2017-07-18T12:30:36.838Z,1022.84
2017-07-18T12:31:38.657Z,1022.78
2017-07-18T12:32:40.537Z,1022.77
2017-07-18T12:33:42.419Z,1022.82
2017-07-18T12:34:44.301Z,1022.80
2017-07-18T12:35:58.484Z,1022.82
2017-07-18T12:37:00.367Z,1022.85
2017-07-18T12:38:02.268Z,1022.82
2017-07-18T12:39:04.142Z,1022.81
2017-07-18T12:40:05.966Z,1022.79
2017-07-18T12:41:07.809Z,1022.75
2017-07-18T12:42:09.711Z,1022.73
2017-07-18T12:43:11.612Z,1022.73
2017-07-18T12:44:13.492Z,1022.66